Time;durP1;ratioP1;P1;durP2;ratioP2;P2;SDS_P1;SDS_P2;PMS_P1;PMS_P2;Temp;Humidity;BMP_temperature;BMP_pressure;BME280_temperature;BME280_humidity;BME280_pressure;Samples;Min_cycle;Max_cycle;Signal;HPM_P1;HPM_P2
2021/12/22 00:01:07;;;;;;;30.80;17.67;;;;;;;;;;5147807;27;20119;-29
2021/12/22 00:03:33;;;;;;;24.40;15.93;;;;;;;;;;5146494;27;20047;-28
2021/12/22 00:05:59;;;;;;;24.77;15.30;;;;;;;;;;5147925;27;20043;-30
2021/12/22 00:08:26;;;;;;;24.35;14.68;;;;;;;;;;5149483;27;20502;-29
2021/12/22 00:10:52;;;;;;;21.55;13.35;;;;;;;;;;5149193;27;20523;-34
2021/12/22 00:13:18;;;;;;;25.33;15.02;;;;;;;;;;5148711;27;20118;-33
2021/12/22 00:15:44;;;;;;;27.60;15.68;;;;;;;;;;5148721;27;20070;-30
2021/12/22 00:18:12;;;;;;;32.45;16.85;;;;;;;;;;5131615;27;20050;-30
2021/12/22 00:20:38;;;;;;;24.63;15.57;;;;;;;;;;5132389;27;20129;-29
2021/12/22 00:23:04;;;;;;;26.90;15.98;;;;;;;;;;5133083;27;20399;-33
2021/12/22 00:25:32;;;;;;;24.00;15.63;;;;;;;;;;5132912;27;20043;-31
2021/12/22 00:28:00;;;;;;;30.20;16.85;;;;;;;;;;5131554;27;20403;-31
2021/12/22 00:30:27;;;;;;;27.13;16.10;;;;;;;;;;5133110;27;20035;-33
2021/12/22 00:33:02;;;;;;;26.15;14.50;;;;;;;;;;5132671;27;20035;-30
2021/12/22 00:35:39;;;;;;;25.25;15.27;;;;;;;;;;5132844;27;20523;-31
2021/12/22 00:38:09;;;;;;;26.05;15.57;;;;;;;;;;5133307;27;20047;-31
2021/12/22 00:40:38;;;;;;;25.95;15.88;;;;;;;;;;5133306;27;20047;-28
2021/12/22 00:43:05;;;;;;;25.30;15.55;;;;;;;;;;5133098;27;20091;-30
2021/12/22 00:45:33;;;;;;;23.13;13.90;;;;;;;;;;5133143;27;20036;-29
2021/12/22 00:48:08;;;;;;;22.10;12.40;;;;;;;;;;5133255;27;20042;-28
2021/12/22 00:50:35;;;;;;;31.15;14.98;;;;;;;;;;5132862;27;20395;-29
2021/12/22 00:53:04;;;;;;;24.05;15.55;;;;;;;;;;5132851;27;20122;-30
2021/12/22 00:55:36;;;;;;;27.88;15.40;;;;;;;;;;5132645;27;20051;-32
2021/12/22 00:58:04;;;;;;;22.38;14.02;;;;;;;;;;5132615;27;20035;-30
2021/12/22 01:00:36;;;;;;;25.60;15.20;;;;;;;;;;5131481;27;20043;-33
2021/12/22 01:03:06;;;;;;;22.75;14.57;;;;;;;;;;5132374;27;20074;-29
2021/12/22 01:05:33;;;;;;;22.65;14.32;;;;;;;;;;5131961;27;20039;-33
2021/12/22 01:08:01;;;;;;;21.40;14.02;;;;;;;;;;5132551;27;20043;-32
2021/12/22 01:10:29;;;;;;;21.85;14.32;;;;;;;;;;5131062;27;20463;-35
2021/12/22 01:12:59;;;;;;;20.00;14.30;;;;;;;;;;5131578;27;20031;-34
2021/12/22 01:15:26;;;;;;;21.85;13.98;;;;;;;;;;5132091;27;20042;-31
2021/12/22 01:18:05;;;;;;;20.05;13.25;;;;;;;;;;5113574;27;20050;-28
2021/12/22 01:20:38;;;;;;;21.40;13.10;;;;;;;;;;5111956;28;20560;-29
2021/12/22 01:23:06;;;;;;;22.92;13.48;;;;;;;;;;5111637;28;20039;-30
2021/12/22 01:25:35;;;;;;;21.80;13.57;;;;;;;;;;5111885;28;20130;-29
2021/12/22 01:28:01;;;;;;;22.77;13.48;;;;;;;;;;5110965;28;20070;-27
2021/12/22 01:30:30;;;;;;;21.88;12.73;;;;;;;;;;5111849;28;20111;-30
2021/12/22 01:32:57;;;;;;;24.25;14.38;;;;;;;;;;5111820;28;20544;-30
2021/12/22 01:35:28;;;;;;;20.30;13.63;;;;;;;;;;5110536;28;20539;-29
2021/12/22 01:37:56;;;;;;;20.60;13.15;;;;;;;;;;5111831;28;20127;-29
2021/12/22 01:40:25;;;;;;;24.38;14.60;;;;;;;;;;5111796;28;20092;-29
2021/12/22 01:42:54;;;;;;;20.50;14.15;;;;;;;;;;5111651;28;20127;-29
2021/12/22 01:45:47;;;;;;;22.90;14.70;;;;;;;;;;5111774;28;20039;-29
2021/12/22 01:51:22;;;;;;;21.80;13.68;;;;;;;;;;5111556;28;20046;-29
2021/12/22 01:53:50;;;;;;;23.25;15.35;;;;;;;;;;5110200;28;20412;-33
2021/12/22 01:56:24;;;;;;;20.48;12.75;;;;;;;;;;5112356;27;20039;-30
2021/12/22 01:58:55;;;;;;;26.08;14.05;;;;;;;;;;5111834;28;20035;-30
2021/12/22 02:01:28;;;;;;;30.63;16.50;;;;;;;;;;5111450;28;20036;-33
2021/12/22 02:03:55;;;;;;;27.92;15.98;;;;;;;;;;5110829;28;20036;-33
2021/12/22 02:06:21;;;;;;;24.92;15.20;;;;;;;;;;5110646;28;20071;-30
2021/12/22 02:08:48;;;;;;;24.45;14.73;;;;;;;;;;5110612;28;20035;-31
2021/12/22 02:11:15;;;;;;;23.88;14.38;;;;;;;;;;5110720;28;20044;-31
2021/12/22 02:13:48;;;;;;;22.73;14.35;;;;;;;;;;5110287;28;20333;-31
2021/12/22 02:16:20;;;;;;;24.42;15.63;;;;;;;;;;5110928;28;20050;-32
2021/12/22 02:18:53;;;;;;;25.77;15.02;;;;;;;;;;5110653;28;20289;-32
2021/12/22 02:21:25;;;;;;;24.13;14.25;;;;;;;;;;5110652;28;20136;-35
2021/12/22 02:23:52;;;;;;;24.38;15.07;;;;;;;;;;5109979;28;20103;-31
2021/12/22 02:26:24;;;;;;;26.50;15.73;;;;;;;;;;5110291;28;20071;-31
2021/12/22 02:28:59;;;;;;;24.98;15.63;;;;;;;;;;5110544;28;20114;-33
2021/12/22 02:31:26;;;;;;;25.65;15.85;;;;;;;;;;5110562;28;20069;-28
2021/12/22 02:33:53;;;;;;;26.52;15.98;;;;;;;;;;5110344;28;20039;-29
2021/12/22 02:36:24;;;;;;;31.27;18.77;;;;;;;;;;5110624;28;20047;-30
2021/12/22 02:38:55;;;;;;;26.42;17.90;;;;;;;;;;5110956;28;20136;-28
2021/12/22 02:41:28;;;;;;;32.33;16.42;;;;;;;;;;5111404;28;20466;-30
2021/12/22 02:43:59;;;;;;;23.53;14.60;;;;;;;;;;5111332;28;20122;-31
2021/12/22 02:46:30;;;;;;;28.90;16.02;;;;;;;;;;5110625;28;20301;-32
2021/12/22 02:49:03;;;;;;;26.38;16.20;;;;;;;;;;5110644;28;20385;-33
2021/12/22 02:51:33;;;;;;;27.33;15.85;;;;;;;;;;5110428;28;20051;-31
2021/12/22 02:54:17;;;;;;;26.35;17.10;;;;;;;;;;5110238;28;20561;-30
2021/12/22 03:04:53;;;;;;;29.10;16.92;;;;;;;;;;5109314;28;20059;-29
2021/12/22 03:07:23;;;;;;;27.77;16.40;;;;;;;;;;5109777;28;20043;-31
2021/12/22 03:10:02;;;;;;;32.80;18.08;;;;;;;;;;5109721;28;20109;-31
2021/12/22 03:12:35;;;;;;;28.58;17.45;;;;;;;;;;5110724;28;20036;-31
2021/12/22 03:15:08;;;;;;;28.75;16.65;;;;;;;;;;5109889;28;20552;-29
2021/12/22 03:17:34;;;;;;;29.10;17.77;;;;;;;;;;5110388;28;20039;-30
2021/12/22 03:20:01;;;;;;;30.17;18.60;;;;;;;;;;5110298;28;20047;-30
2021/12/22 03:22:28;;;;;;;26.83;15.38;;;;;;;;;;5110035;28;20043;-28
2021/12/22 03:24:57;;;;;;;30.75;17.65;;;;;;;;;;5109938;28;20484;-32
2021/12/22 03:27:24;;;;;;;36.03;19.17;;;;;;;;;;5110472;28;20051;-33
2021/12/22 03:29:54;;;;;;;29.40;16.52;;;;;;;;;;5110220;28;20040;-31
2021/12/22 03:32:23;;;;;;;29.27;17.15;;;;;;;;;;5110169;28;20528;-31
2021/12/22 03:34:49;;;;;;;27.80;16.15;;;;;;;;;;5110032;28;20050;-32
2021/12/22 03:37:15;;;;;;;28.02;17.40;;;;;;;;;;5109808;28;20044;-31
2021/12/22 03:39:44;;;;;;;26.90;16.15;;;;;;;;;;5110171;28;20464;-32
2021/12/22 03:42:15;;;;;;;27.38;15.93;;;;;;;;;;5110072;28;20512;-34
2021/12/22 03:44:45;;;;;;;29.27;17.80;;;;;;;;;;5109528;28;20042;-33
2021/12/22 03:47:12;;;;;;;31.83;17.55;;;;;;;;;;5109527;28;20047;-32
2021/12/22 03:49:38;;;;;;;28.48;16.60;;;;;;;;;;5109725;28;20522;-33
2021/12/22 03:52:07;;;;;;;30.25;16.75;;;;;;;;;;5111540;28;20047;-31
2021/12/22 03:54:36;;;;;;;26.58;16.20;;;;;;;;;;5113391;28;20043;-28
2021/12/22 03:57:02;;;;;;;35.42;19.58;;;;;;;;;;5112792;28;20120;-28
2021/12/22 03:59:28;;;;;;;27.52;15.18;;;;;;;;;;5112900;28;20035;-30
2021/12/22 04:01:58;;;;;;;29.90;17.10;;;;;;;;;;5113150;28;20039;-27
2021/12/22 04:04:24;;;;;;;27.83;17.95;;;;;;;;;;5113114;28;20071;-30
2021/12/22 04:06:54;;;;;;;30.98;17.65;;;;;;;;;;5113033;28;20040;-30
2021/12/22 04:09:26;;;;;;;33.80;19.38;;;;;;;;;;5113137;28;20032;-28
2021/12/22 04:11:53;;;;;;;32.05;16.75;;;;;;;;;;5112370;28;20047;-27
2021/12/22 04:14:24;;;;;;;27.55;16.60;;;;;;;;;;5112072;28;20114;-32
2021/12/22 04:16:53;;;;;;;28.35;16.77;;;;;;;;;;5112383;28;20393;-29
2021/12/22 04:19:22;;;;;;;32.08;16.17;;;;;;;;;;5112647;27;20480;-29
2021/12/22 04:21:49;;;;;;;25.70;16.25;;;;;;;;;;5112168;28;20424;-30
2021/12/22 04:24:16;;;;;;;30.38;17.80;;;;;;;;;;5112018;28;20103;-27
2021/12/22 04:26:42;;;;;;;31.27;17.23;;;;;;;;;;5112923;28;20555;-29
2021/12/22 04:29:12;;;;;;;29.33;17.17;;;;;;;;;;5112632;28;20071;-27
2021/12/22 04:31:41;;;;;;;31.48;16.83;;;;;;;;;;5112434;28;20040;-28
2021/12/22 04:34:11;;;;;;;26.83;16.05;;;;;;;;;;5112830;28;20044;-30
2021/12/22 04:36:40;;;;;;;34.05;16.95;;;;;;;;;;5112771;28;20035;-30
2021/12/22 04:39:08;;;;;;;32.70;15.52;;;;;;;;;;5112451;28;20046;-28
2021/12/22 04:41:34;;;;;;;30.90;16.98;;;;;;;;;;5113297;28;20251;-31
2021/12/22 04:44:03;;;;;;;26.25;14.98;;;;;;;;;;5112742;28;20039;-32
2021/12/22 04:46:38;;;;;;;29.27;15.77;;;;;;;;;;5112510;28;20134;-31
2021/12/22 04:49:07;;;;;;;29.27;16.27;;;;;;;;;;5112606;27;20048;-31
2021/12/22 04:51:47;;;;;;;34.20;16.67;;;;;;;;;;5112097;27;20100;-29
2021/12/22 04:57:06;;;;;;;28.20;17.38;;;;;;;;;;5111120;28;20054;-29
2021/12/22 04:59:32;;;;;;;30.48;17.85;;;;;;;;;;5112273;27;20035;-30
2021/12/22 05:02:13;;;;;;;31.48;16.92;;;;;;;;;;5128074;27;20043;-32
2021/12/22 05:04:39;;;;;;;31.02;16.88;;;;;;;;;;5149929;27;20043;-35
2021/12/22 05:07:06;;;;;;;34.95;18.10;;;;;;;;;;5153156;27;20038;-31
2021/12/22 05:09:32;;;;;;;32.65;16.65;;;;;;;;;;5152620;27;20039;-33
2021/12/22 05:12:01;;;;;;;31.75;17.02;;;;;;;;;;5152701;27;20035;-33
2021/12/22 05:14:27;;;;;;;37.80;17.50;;;;;;;;;;5138990;27;20444;-30
2021/12/22 05:16:59;;;;;;;30.40;15.88;;;;;;;;;;5133049;27;20058;-31
2021/12/22 05:19:25;;;;;;;34.40;18.83;;;;;;;;;;5129146;27;20040;-31
2021/12/22 05:22:02;;;;;;;34.25;17.10;;;;;;;;;;5136837;27;20030;-31
2021/12/22 05:24:28;;;;;;;27.42;15.85;;;;;;;;;;5131680;27;20490;-33
2021/12/22 05:26:54;;;;;;;31.15;17.63;;;;;;;;;;5152593;27;20107;-29
2021/12/22 05:29:23;;;;;;;30.90;16.48;;;;;;;;;;5152192;27;20034;-29
2021/12/22 05:31:55;;;;;;;37.00;17.27;;;;;;;;;;5152410;27;20047;-29
2021/12/22 05:34:23;;;;;;;35.33;16.42;;;;;;;;;;5152599;27;20535;-30
2021/12/22 05:36:49;;;;;;;32.25;16.23;;;;;;;;;;5152445;27;20305;-29
2021/12/22 05:39:19;;;;;;;32.55;17.17;;;;;;;;;;5153019;27;20031;-28
2021/12/22 05:41:45;;;;;;;29.50;16.27;;;;;;;;;;5152828;27;20635;-30
2021/12/22 05:44:12;;;;;;;28.05;16.40;;;;;;;;;;5151766;27;20095;-31
2021/12/22 05:46:38;;;;;;;29.30;16.38;;;;;;;;;;5146923;27;20035;-31
2021/12/22 05:49:13;;;;;;;28.15;16.00;;;;;;;;;;5124488;27;20031;-28
2021/12/22 05:51:39;;;;;;;26.05;15.63;;;;;;;;;;5124266;27;20395;-29
2021/12/22 05:54:05;;;;;;;29.10;14.45;;;;;;;;;;5125836;27;20219;-29
2021/12/22 05:56:35;;;;;;;30.00;16.20;;;;;;;;;;5125453;27;20135;-28
2021/12/22 05:59:00;;;;;;;27.77;14.88;;;;;;;;;;5125880;27;20039;-32
2021/12/22 06:01:30;;;;;;;30.02;15.60;;;;;;;;;;5119992;27;20472;-30
2021/12/22 06:03:59;;;;;;;26.25;15.07;;;;;;;;;;5107675;28;20426;-30
2021/12/22 06:06:34;;;;;;;28.65;15.63;;;;;;;;;;5107860;28;20047;-30
2021/12/22 06:09:00;;;;;;;30.33;15.73;;;;;;;;;;5109421;28;20054;-31
2021/12/22 06:11:26;;;;;;;28.13;15.27;;;;;;;;;;5111535;28;20392;-29
2021/12/22 06:13:52;;;;;;;28.20;17.73;;;;;;;;;;5112512;27;20036;-28
2021/12/22 06:16:18;;;;;;;28.13;16.17;;;;;;;;;;5110887;28;20043;-30
2021/12/22 06:18:46;;;;;;;26.20;15.05;;;;;;;;;;5111702;28;20046;-29
2021/12/22 06:21:15;;;;;;;26.95;15.60;;;;;;;;;;5111129;28;20047;-30
2021/12/22 06:23:45;;;;;;;25.92;14.38;;;;;;;;;;5109840;28;20081;-31
2021/12/22 06:26:11;;;;;;;25.77;15.18;;;;;;;;;;5110896;28;20465;-33
2021/12/22 06:28:46;;;;;;;30.27;15.75;;;;;;;;;;5110907;28;20031;-31
2021/12/22 06:31:12;;;;;;;22.80;13.60;;;;;;;;;;5110595;28;20105;-32
2021/12/22 06:33:38;;;;;;;27.88;14.70;;;;;;;;;;5110249;28;20043;-32
2021/12/22 06:36:04;;;;;;;29.23;14.70;;;;;;;;;;5110672;28;20044;-30
2021/12/22 06:38:39;;;;;;;25.00;14.55;;;;;;;;;;5111224;28;20048;-31
2021/12/22 06:41:05;;;;;;;23.58;13.80;;;;;;;;;;5111235;28;20373;-32
2021/12/22 06:43:31;;;;;;;26.95;14.20;;;;;;;;;;5111416;28;20039;-28
2021/12/22 06:45:57;;;;;;;27.60;14.35;;;;;;;;;;5109957;28;20493;-28
2021/12/22 06:48:23;;;;;;;29.02;14.95;;;;;;;;;;5110916;28;20130;-28
2021/12/22 06:50:49;;;;;;;25.35;15.13;;;;;;;;;;5111089;28;20555;-29
2021/12/22 06:53:15;;;;;;;29.48;15.48;;;;;;;;;;5092550;28;20035;-32
2021/12/22 06:55:41;;;;;;;32.90;16.48;;;;;;;;;;5110987;28;20516;-33
2021/12/22 06:58:07;;;;;;;24.30;15.18;;;;;;;;;;5110760;28;20039;-31
2021/12/22 07:00:35;;;;;;;24.05;13.80;;;;;;;;;;5115962;27;20039;-28
2021/12/22 07:03:04;;;;;;;28.02;15.93;;;;;;;;;;5113137;27;20075;-28
2021/12/22 07:05:34;;;;;;;32.78;16.35;;;;;;;;;;5128506;27;20078;-30
2021/12/22 07:08:03;;;;;;;27.60;13.85;;;;;;;;;;5151486;27;20179;-35
2021/12/22 07:10:30;;;;;;;28.88;15.13;;;;;;;;;;5152060;27;20043;-32
2021/12/22 07:12:59;;;;;;;31.98;17.23;;;;;;;;;;5131561;27;21115;-29
2021/12/22 07:15:26;;;;;;;28.65;16.70;;;;;;;;;;5115967;27;20062;-31
2021/12/22 07:17:52;;;;;;;24.95;14.65;;;;;;;;;;5115389;27;20042;-31
2021/12/22 07:20:19;;;;;;;28.92;15.40;;;;;;;;;;5124863;27;20039;-29
2021/12/22 07:22:48;;;;;;;31.48;16.63;;;;;;;;;;5125592;27;20381;-32
2021/12/22 07:25:18;;;;;;;38.35;19.08;;;;;;;;;;5135772;27;20442;-32
2021/12/22 07:27:45;;;;;;;33.63;17.85;;;;;;;;;;5133605;27;20488;-31
2021/12/22 07:30:14;;;;;;;30.98;16.65;;;;;;;;;;5134666;27;20042;-31
2021/12/22 07:32:43;;;;;;;35.88;17.60;;;;;;;;;;5134872;27;20088;-29
2021/12/22 07:35:26;;;;;;;31.02;16.67;;;;;;;;;;5135224;27;20050;-29
2021/12/22 07:37:57;;;;;;;27.35;15.90;;;;;;;;;;5136180;27;20039;-32
2021/12/22 07:40:24;;;;;;;32.65;17.23;;;;;;;;;;5135069;27;20054;-33
2021/12/22 07:42:50;;;;;;;32.80;17.58;;;;;;;;;;5144459;27;20038;-31
2021/12/22 07:45:19;;;;;;;31.05;16.67;;;;;;;;;;5120088;27;20549;-28
2021/12/22 07:47:45;;;;;;;30.33;16.23;;;;;;;;;;5133476;27;20765;-32
2021/12/22 07:50:12;;;;;;;29.33;16.45;;;;;;;;;;5139737;27;20100;-29
2021/12/22 07:52:44;;;;;;;28.67;15.18;;;;;;;;;;5148393;27;20078;-28
2021/12/22 07:55:10;;;;;;;25.95;14.57;;;;;;;;;;5154451;27;20050;-27
2021/12/22 07:57:39;;;;;;;29.88;15.85;;;;;;;;;;5155807;27;20454;-29
2021/12/22 08:00:10;;;;;;;30.60;16.77;;;;;;;;;;5155836;27;20038;-27
2021/12/22 08:02:48;;;;;;;33.92;16.85;;;;;;;;;;5156198;27;20045;-29
2021/12/22 08:05:15;;;;;;;29.90;16.30;;;;;;;;;;5154632;27;20511;-30
2021/12/22 08:07:47;;;;;;;29.00;17.00;;;;;;;;;;5155008;27;20495;-31
2021/12/22 08:10:16;;;;;;;32.00;17.08;;;;;;;;;;5133424;27;20519;-32
2021/12/22 08:12:46;;;;;;;29.65;16.73;;;;;;;;;;5144311;27;20044;-31
2021/12/22 08:15:15;;;;;;;30.05;16.85;;;;;;;;;;5122930;27;20043;-31
2021/12/22 08:17:42;;;;;;;32.80;17.17;;;;;;;;;;5127331;27;20504;-32
2021/12/22 08:20:08;;;;;;;30.70;16.35;;;;;;;;;;5124302;27;20476;-30
2021/12/22 08:22:38;;;;;;;29.67;15.65;;;;;;;;;;5130121;27;20043;-30
2021/12/22 08:25:04;;;;;;;28.75;16.65;;;;;;;;;;5126494;27;20039;-29
2021/12/22 08:27:30;;;;;;;28.83;15.65;;;;;;;;;;5133960;27;20047;-30
2021/12/22 08:29:56;;;;;;;29.65;16.60;;;;;;;;;;5134810;27;20488;-29
2021/12/22 08:32:25;;;;;;;31.35;17.02;;;;;;;;;;5134540;27;20043;-29
2021/12/22 08:34:56;;;;;;;26.17;15.85;;;;;;;;;;5134837;27;20039;-27
2021/12/22 08:40:18;;;;;;;29.95;17.00;;;;;;;;;;5134759;27;20043;-29
2021/12/22 08:42:49;;;;;;;32.50;17.83;;;;;;;;;;5134947;27;20066;-29
2021/12/22 08:45:21;;;;;;;24.27;13.98;;;;;;;;;;5133752;27;20465;-30
2021/12/22 08:47:48;;;;;;;29.50;16.13;;;;;;;;;;5134791;27;20408;-29
2021/12/22 08:50:18;;;;;;;30.10;17.15;;;;;;;;;;5134276;27;20088;-31
2021/12/22 08:52:47;;;;;;;28.13;17.00;;;;;;;;;;5133651;27;20506;-28
2021/12/22 08:55:20;;;;;;;30.48;16.67;;;;;;;;;;5134604;27;20536;-29
2021/12/22 08:57:49;;;;;;;35.10;18.55;;;;;;;;;;5134749;27;20492;-29
2021/12/22 09:00:18;;;;;;;33.83;18.15;;;;;;;;;;5133420;27;20050;-29
2021/12/22 09:02:53;;;;;;;34.17;17.90;;;;;;;;;;5134690;27;20035;-28
2021/12/22 09:05:22;;;;;;;32.85;17.90;;;;;;;;;;5120508;27;20067;-28
2021/12/22 09:07:51;;;;;;;34.15;18.00;;;;;;;;;;5123711;27;20097;-28
2021/12/22 09:10:20;;;;;;;30.27;17.08;;;;;;;;;;5120207;27;20106;-29
2021/12/22 09:12:49;;;;;;;33.03;17.27;;;;;;;;;;5143632;27;20081;-31
2021/12/22 09:15:19;;;;;;;28.80;16.27;;;;;;;;;;5118546;27;20036;-30
2021/12/22 09:17:51;;;;;;;32.85;17.80;;;;;;;;;;5113835;27;20389;-31
2021/12/22 09:20:20;;;;;;;35.25;18.67;;;;;;;;;;5114535;27;20118;-34
2021/12/22 09:22:49;;;;;;;31.15;17.77;;;;;;;;;;5151833;27;20039;-30
2021/12/22 09:25:21;;;;;;;29.52;16.95;;;;;;;;;;5143304;27;20066;-32
2021/12/22 09:27:58;;;;;;;35.95;18.95;;;;;;;;;;5126580;27;20027;-32
2021/12/22 09:30:31;;;;;;;30.25;17.73;;;;;;;;;;5118035;27;20070;-32
2021/12/22 09:33:00;;;;;;;33.53;18.30;;;;;;;;;;5119850;27;20110;-33
2021/12/22 09:35:30;;;;;;;29.33;16.60;;;;;;;;;;5123806;27;20039;-32
2021/12/22 09:37:59;;;;;;;27.30;17.00;;;;;;;;;;5112981;28;20040;-31
2021/12/22 09:40:30;;;;;;;30.58;18.02;;;;;;;;;;5111758;27;20471;-32
2021/12/22 09:42:56;;;;;;;30.05;17.13;;;;;;;;;;5131918;27;20035;-32
2021/12/22 09:45:26;;;;;;;32.63;17.67;;;;;;;;;;5139695;27;20632;-32
2021/12/22 09:50:53;;;;;;;30.20;16.90;;;;;;;;;;5132362;27;20166;-32
2021/12/22 09:53:21;;;;;;;28.67;16.98;;;;;;;;;;5131736;27;20043;-33
2021/12/22 09:55:51;;;;;;;29.20;16.50;;;;;;;;;;5132667;27;20042;-32
2021/12/22 09:58:17;;;;;;;27.60;16.95;;;;;;;;;;5133201;27;20043;-33
2021/12/22 10:00:44;;;;;;;22.52;15.40;;;;;;;;;;5124980;27;20092;-32
2021/12/22 10:03:11;;;;;;;26.58;16.02;;;;;;;;;;5144748;27;20538;-31
2021/12/22 10:05:38;;;;;;;23.65;14.32;;;;;;;;;;5152182;27;20046;-33
2021/12/22 10:08:24;;;;;;;24.13;14.48;;;;;;;;;;5153673;27;20053;-34
2021/12/22 10:10:59;;;;;;;21.75;14.15;;;;;;;;;;5153040;27;20066;-32
2021/12/22 10:13:26;;;;;;;27.38;15.77;;;;;;;;;;5153131;27;20295;-34
2021/12/22 10:16:11;;;;;;;20.83;13.82;;;;;;;;;;5151980;27;20055;-32
2021/12/22 10:18:38;;;;;;;23.80;15.48;;;;;;;;;;5153540;27;20043;-30
2021/12/22 10:21:10;;;;;;;23.52;16.00;;;;;;;;;;5153395;27;20560;-31
2021/12/22 10:23:39;;;;;;;17.98;13.57;;;;;;;;;;5153107;27;20027;-34
2021/12/22 10:26:07;;;;;;;21.30;14.77;;;;;;;;;;5153743;27;20038;-32
2021/12/22 10:28:45;;;;;;;19.85;13.13;;;;;;;;;;5153001;27;20058;-30
2021/12/22 10:31:12;;;;;;;20.85;13.18;;;;;;;;;;5153267;27;20031;-32
2021/12/22 10:33:39;;;;;;;18.90;13.32;;;;;;;;;;5138767;27;20039;-31
2021/12/22 10:36:13;;;;;;;19.42;13.10;;;;;;;;;;5133170;27;20031;-31
2021/12/22 10:38:49;;;;;;;22.35;14.15;;;;;;;;;;5150889;27;20084;-31
2021/12/22 10:41:16;;;;;;;22.00;13.63;;;;;;;;;;5150800;27;20078;-30
2021/12/22 10:43:44;;;;;;;19.00;12.98;;;;;;;;;;5150272;27;20038;-31
2021/12/22 10:46:15;;;;;;;20.02;13.93;;;;;;;;;;5122752;27;20039;-32
2021/12/22 10:51:36;;;;;;;18.27;12.45;;;;;;;;;;5121626;27;20035;-33
2021/12/22 10:54:13;;;;;;;17.52;12.23;;;;;;;;;;5113903;27;20039;-32
2021/12/22 10:56:47;;;;;;;22.52;15.93;;;;;;;;;;5121114;27;20035;-31
2021/12/22 10:59:26;;;;;;;20.40;14.13;;;;;;;;;;5112128;27;20059;-31
2021/12/22 11:02:10;;;;;;;21.95;14.88;;;;;;;;;;5117848;27;20365;-31
2021/12/22 11:04:45;;;;;;;31.15;23.08;;;;;;;;;;5139909;27;20087;-31
2021/12/22 11:07:26;;;;;;;37.17;26.08;;;;;;;;;;5152880;27;20035;-30
2021/12/22 11:09:52;;;;;;;32.92;29.35;;;;;;;;;;5152907;27;20110;-31
2021/12/22 11:12:36;;;;;;;24.80;18.77;;;;;;;;;;5152937;27;20074;-31
2021/12/22 11:15:03;;;;;;;19.10;14.98;;;;;;;;;;5129075;27;20088;-32
2021/12/22 11:17:31;;;;;;;22.95;16.20;;;;;;;;;;5134617;27;20038;-32
2021/12/22 11:20:06;;;;;;;20.30;15.27;;;;;;;;;;5144592;27;20070;-32
2021/12/22 11:22:47;;;;;;;19.65;15.13;;;;;;;;;;5152817;27;20100;-31
2021/12/22 11:25:13;;;;;;;17.70;12.90;;;;;;;;;;5152024;27;20035;-31
2021/12/22 11:27:40;;;;;;;20.30;14.05;;;;;;;;;;5151437;27;20154;-29
2021/12/22 11:30:08;;;;;;;15.32;12.55;;;;;;;;;;5151979;27;20047;-29
2021/12/22 11:32:37;;;;;;;17.60;13.82;;;;;;;;;;5152682;27;20509;-32
2021/12/22 11:35:09;;;;;;;20.73;15.75;;;;;;;;;;5153285;27;20579;-30
2021/12/22 11:37:35;;;;;;;18.65;12.55;;;;;;;;;;5152735;27;20038;-30
2021/12/22 11:40:05;;;;;;;14.90;11.50;;;;;;;;;;5152601;27;20457;-29
2021/12/22 11:42:32;;;;;;;18.25;12.25;;;;;;;;;;5152269;27;20042;-31
2021/12/22 11:45:00;;;;;;;17.27;12.52;;;;;;;;;;5151424;27;20057;-31
2021/12/22 11:47:27;;;;;;;18.67;12.25;;;;;;;;;;5152820;27;20137;-30
2021/12/22 11:49:56;;;;;;;17.20;12.20;;;;;;;;;;5152835;27;20031;-30
2021/12/22 11:52:33;;;;;;;18.15;12.95;;;;;;;;;;5152838;27;20117;-28
2021/12/22 11:55:05;;;;;;;16.10;12.13;;;;;;;;;;5152674;27;20399;-30
2021/12/22 11:57:31;;;;;;;16.60;12.05;;;;;;;;;;5152596;27;20034;-28
2021/12/22 11:59:57;;;;;;;16.95;11.60;;;;;;;;;;5152991;27;20099;-29
2021/12/22 12:02:25;;;;;;;13.85;11.77;;;;;;;;;;5152948;27;20046;-28
2021/12/22 12:05:16;;;;;;;21.40;15.40;;;;;;;;;;5151839;27;20043;-28
2021/12/22 12:07:50;;;;;;;24.65;17.42;;;;;;;;;;5152364;27;20095;-35
2021/12/22 12:10:38;;;;;;;24.92;16.80;;;;;;;;;;5152463;27;20395;-30
2021/12/22 12:13:22;;;;;;;17.85;12.82;;;;;;;;;;5154283;27;20056;-30
2021/12/22 12:21:48;;;;;;;17.35;13.02;;;;;;;;;;5156095;27;20330;-30
2021/12/22 12:24:34;;;;;;;18.13;12.45;;;;;;;;;;5155926;27;20050;-34
2021/12/22 12:27:23;;;;;;;18.65;12.85;;;;;;;;;;5156034;27;20483;-29
2021/12/22 12:30:08;;;;;;;18.80;13.88;;;;;;;;;;5156056;27;20512;-30
2021/12/22 12:32:40;;;;;;;15.23;12.32;;;;;;;;;;5156356;27;20485;-28
2021/12/22 12:35:18;;;;;;;16.52;12.52;;;;;;;;;;5155492;27;20084;-31
2021/12/22 12:37:59;;;;;;;18.40;13.18;;;;;;;;;;5155297;27;20095;-30
2021/12/22 12:40:48;;;;;;;19.63;13.68;;;;;;;;;;5155518;27;20094;-28
2021/12/22 12:43:17;;;;;;;16.08;11.63;;;;;;;;;;5155403;27;20070;-30
2021/12/22 12:45:52;;;;;;;17.80;12.77;;;;;;;;;;5155589;27;20042;-30
2021/12/22 12:48:44;;;;;;;17.60;11.45;;;;;;;;;;5154611;27;20073;-32
2021/12/22 12:51:17;;;;;;;17.88;12.48;;;;;;;;;;5155558;27;20042;-32
2021/12/22 12:53:45;;;;;;;19.17;12.77;;;;;;;;;;5155399;27;20042;-29
2021/12/22 12:56:15;;;;;;;18.83;11.88;;;;;;;;;;5155662;27;20074;-30
2021/12/22 12:58:56;;;;;;;19.15;12.90;;;;;;;;;;5155600;27;20125;-32
2021/12/22 13:01:40;;;;;;;17.90;13.15;;;;;;;;;;5155358;27;20286;-29
2021/12/22 13:04:20;;;;;;;16.85;11.80;;;;;;;;;;5155492;27;20074;-28
2021/12/22 13:06:49;;;;;;;15.93;11.88;;;;;;;;;;5155077;27;20403;-30
2021/12/22 13:09:26;;;;;;;18.52;13.10;;;;;;;;;;5154983;27;20062;-30
2021/12/22 13:12:10;;;;;;;20.00;13.55;;;;;;;;;;5155199;27;20535;-29
2021/12/22 13:17:33;;;;;;;16.88;11.68;;;;;;;;;;5155006;27;20150;-29
2021/12/22 13:20:02;;;;;;;21.17;12.65;;;;;;;;;;5155347;27;20122;-29
2021/12/22 13:22:36;;;;;;;20.23;13.23;;;;;;;;;;5154779;27;20046;-30
2021/12/22 13:25:15;;;;;;;20.30;12.60;;;;;;;;;;5154753;27;20126;-29
2021/12/22 13:27:54;;;;;;;18.08;12.93;;;;;;;;;;5154992;27;20483;-30
2021/12/22 13:30:29;;;;;;;19.30;12.88;;;;;;;;;;5154773;27;20042;-29
2021/12/22 13:33:04;;;;;;;19.13;14.02;;;;;;;;;;5154574;27;20618;-31
2021/12/22 13:36:02;;;;;;;19.48;12.70;;;;;;;;;;5154377;27;20398;-30
2021/12/22 13:38:34;;;;;;;21.73;14.50;;;;;;;;;;5130462;27;20061;-30
2021/12/22 13:41:10;;;;;;;25.00;14.80;;;;;;;;;;5154313;27;20096;-31
2021/12/22 13:43:43;;;;;;;20.65;14.35;;;;;;;;;;5153359;27;20094;-31
2021/12/22 13:46:09;;;;;;;21.73;16.73;;;;;;;;;;5154764;27;20042;-30
2021/12/22 13:48:37;;;;;;;20.35;15.05;;;;;;;;;;5155554;27;20080;-31
2021/12/22 13:51:05;;;;;;;19.25;14.02;;;;;;;;;;5155741;27;20228;-32
2021/12/22 13:53:32;;;;;;;20.50;13.65;;;;;;;;;;5147283;27;20031;-31
2021/12/22 13:55:59;;;;;;;18.52;14.35;;;;;;;;;;5120006;27;20039;-30
2021/12/22 13:58:30;;;;;;;19.50;13.10;;;;;;;;;;5119256;27;20078;-29
2021/12/22 14:01:09;;;;;;;17.27;12.98;;;;;;;;;;5124408;27;20435;-28
2021/12/22 14:03:36;;;;;;;19.13;13.07;;;;;;;;;;5126010;27;20123;-30
2021/12/22 14:06:09;;;;;;;21.50;13.32;;;;;;;;;;5118917;27;20075;-30
2021/12/22 14:08:36;;;;;;;20.17;13.52;;;;;;;;;;5120172;27;20084;-30
2021/12/22 14:11:02;;;;;;;20.15;13.13;;;;;;;;;;5126645;27;20027;-27
2021/12/22 14:13:31;;;;;;;20.20;13.63;;;;;;;;;;5138295;27;20091;-29
2021/12/22 14:15:58;;;;;;;17.70;12.73;;;;;;;;;;5123837;27;20042;-29
2021/12/22 14:18:33;;;;;;;20.23;12.68;;;;;;;;;;5134760;27;20039;-27
2021/12/22 14:20:59;;;;;;;18.20;13.38;;;;;;;;;;5122215;27;20049;-29
2021/12/22 14:23:25;;;;;;;18.08;12.57;;;;;;;;;;5125442;27;20394;-30
2021/12/22 14:26:03;;;;;;;18.05;12.57;;;;;;;;;;5122248;27;20117;-30
2021/12/22 14:28:36;;;;;;;15.88;12.05;;;;;;;;;;5140893;27;20035;-29
2021/12/22 14:31:10;;;;;;;17.08;13.10;;;;;;;;;;5132883;27;20190;-29
2021/12/22 14:33:36;;;;;;;19.85;13.55;;;;;;;;;;5132344;27;20492;-29
2021/12/22 14:36:08;;;;;;;19.25;13.63;;;;;;;;;;5131859;27;20080;-29
2021/12/22 14:38:37;;;;;;;19.92;14.45;;;;;;;;;;5132520;27;20551;-29
2021/12/22 14:41:07;;;;;;;19.92;13.82;;;;;;;;;;5132274;27;20561;-30
2021/12/22 14:43:34;;;;;;;20.45;14.57;;;;;;;;;;5131765;27;20043;-31
2021/12/22 14:46:00;;;;;;;21.10;13.90;;;;;;;;;;5114317;27;20039;-29
2021/12/22 14:48:31;;;;;;;18.70;12.77;;;;;;;;;;5130244;27;20039;-29
2021/12/22 14:51:08;;;;;;;18.25;13.60;;;;;;;;;;5126930;27;20488;-33
2021/12/22 14:53:37;;;;;;;21.85;13.45;;;;;;;;;;5131264;27;20416;-32
2021/12/22 14:56:05;;;;;;;21.95;14.45;;;;;;;;;;5108710;27;20115;-33
2021/12/22 14:58:30;;;;;;;19.35;13.75;;;;;;;;;;5111613;28;20377;-34
2021/12/22 15:00:57;;;;;;;22.35;14.68;;;;;;;;;;5110959;28;20042;-31
2021/12/22 15:03:24;;;;;;;21.77;15.60;;;;;;;;;;5108526;28;20139;-30
2021/12/22 15:05:51;;;;;;;18.15;12.65;;;;;;;;;;5106459;28;20044;-32